sensor_id;sensor_type;location;lat;lon;timestamp;P1;durP1;ratioP1;P2;durP2;ratioP2
12048;SDS011;6085;49.452;8.502;2023-04-22T00:00:53;4.00;;;2.80;;
12048;SDS011;6085;49.452;8.502;2023-04-22T00:04:56;3.03;;;2.72;;
12048;SDS011;6085;49.452;8.502;2023-04-22T00:09:01;2.80;;;2.60;;
12048;SDS011;6085;49.452;8.502;2023-04-22T00:13:03;3.35;;;3.05;;
12048;SDS011;6085;49.452;8.502;2023-04-22T00:17:05;3.00;;;2.80;;
12048;SDS011;6085;49.452;8.502;2023-04-22T00:21:08;3.03;;;2.80;;
12048;SDS011;6085;49.452;8.502;2023-04-22T00:25:10;3.38;;;3.08;;
12048;SDS011;6085;49.452;8.502;2023-04-22T00:29:12;3.05;;;2.85;;
12048;SDS011;6085;49.452;8.502;2023-04-22T00:33:14;3.80;;;3.50;;
12048;SDS011;6085;49.452;8.502;2023-04-22T00:37:17;3.33;;;3.03;;
12048;SDS011;6085;49.452;8.502;2023-04-22T00:41:19;3.08;;;2.88;;
12048;SDS011;6085;49.452;8.502;2023-04-22T00:45:22;3.30;;;3.00;;
12048;SDS011;6085;49.452;8.502;2023-04-22T00:49:27;3.72;;;3.17;;
12048;SDS011;6085;49.452;8.502;2023-04-22T00:53:30;3.97;;;3.20;;
12048;SDS011;6085;49.452;8.502;2023-04-22T00:57:32;3.88;;;3.42;;
12048;SDS011;6085;49.452;8.502;2023-04-22T01:01:35;4.65;;;3.42;;
12048;SDS011;6085;49.452;8.502;2023-04-22T01:05:37;4.00;;;3.60;;
12048;SDS011;6085;49.452;8.502;2023-04-22T01:09:41;4.90;;;3.35;;
12048;SDS011;6085;49.452;8.502;2023-04-22T01:13:44;3.40;;;3.13;;
12048;SDS011;6085;49.452;8.502;2023-04-22T01:17:46;3.72;;;3.42;;
12048;SDS011;6085;49.452;8.502;2023-04-22T01:21:48;3.60;;;3.30;;
12048;SDS011;6085;49.452;8.502;2023-04-22T01:25:53;4.43;;;3.50;;
12048;SDS011;6085;49.452;8.502;2023-04-22T01:29:55;3.00;;;2.80;;
12048;SDS011;6085;49.452;8.502;2023-04-22T01:33:57;4.63;;;3.42;;
12048;SDS011;6085;49.452;8.502;2023-04-22T01:37:59;4.68;;;3.90;;
12048;SDS011;6085;49.452;8.502;2023-04-22T01:42:03;4.32;;;3.05;;
12048;SDS011;6085;49.452;8.502;2023-04-22T01:46:05;3.92;;;3.10;;
12048;SDS011;6085;49.452;8.502;2023-04-22T01:50:09;3.60;;;3.30;;
12048;SDS011;6085;49.452;8.502;2023-04-22T01:54:11;3.40;;;3.10;;
12048;SDS011;6085;49.452;8.502;2023-04-22T01:58:14;3.17;;;2.88;;
12048;SDS011;6085;49.452;8.502;2023-04-22T02:02:16;3.40;;;3.10;;
12048;SDS011;6085;49.452;8.502;2023-04-22T02:06:18;3.45;;;2.80;;
12048;SDS011;6085;49.452;8.502;2023-04-22T02:10:20;3.17;;;2.97;;
12048;SDS011;6085;49.452;8.502;2023-04-22T02:14:23;5.18;;;3.28;;
12048;SDS011;6085;49.452;8.502;2023-04-22T02:18:26;3.35;;;3.05;;
12048;SDS011;6085;49.452;8.502;2023-04-22T02:22:28;3.50;;;3.20;;
12048;SDS011;6085;49.452;8.502;2023-04-22T02:26:29;3.58;;;3.28;;
12048;SDS011;6085;49.452;8.502;2023-04-22T02:30:33;3.63;;;3.33;;
12048;SDS011;6085;49.452;8.502;2023-04-22T02:34:35;3.30;;;3.03;;
12048;SDS011;6085;49.452;8.502;2023-04-22T02:38:37;4.40;;;3.50;;
12048;SDS011;6085;49.452;8.502;2023-04-22T02:42:39;4.55;;;3.63;;
12048;SDS011;6085;49.452;8.502;2023-04-22T02:46:42;4.20;;;3.80;;
12048;SDS011;6085;49.452;8.502;2023-04-22T02:50:44;3.78;;;3.42;;
12048;SDS011;6085;49.452;8.502;2023-04-22T02:54:46;3.55;;;3.25;;
12048;SDS011;6085;49.452;8.502;2023-04-22T02:58:48;4.53;;;3.50;;
12048;SDS011;6085;49.452;8.502;2023-04-22T03:02:51;4.18;;;3.80;;
12048;SDS011;6085;49.452;8.502;2023-04-22T03:06:53;4.72;;;4.32;;
12048;SDS011;6085;49.452;8.502;2023-04-22T03:10:56;3.90;;;3.60;;
12048;SDS011;6085;49.452;8.502;2023-04-22T03:14:58;3.92;;;3.53;;
12048;SDS011;6085;49.452;8.502;2023-04-22T03:19:01;4.63;;;4.22;;
12048;SDS011;6085;49.452;8.502;2023-04-22T03:23:03;5.03;;;4.55;;
12048;SDS011;6085;49.452;8.502;2023-04-22T03:27:07;3.70;;;3.40;;
12048;SDS011;6085;49.452;8.502;2023-04-22T03:31:10;4.15;;;3.83;;
12048;SDS011;6085;49.452;8.502;2023-04-22T03:35:13;4.65;;;3.58;;
12048;SDS011;6085;49.452;8.502;2023-04-22T03:39:15;5.50;;;4.70;;
12048;SDS011;6085;49.452;8.502;2023-04-22T03:43:18;5.68;;;5.07;;
12048;SDS011;6085;49.452;8.502;2023-04-22T03:47:19;7.78;;;5.18;;
12048;SDS011;6085;49.452;8.502;2023-04-22T03:51:23;4.97;;;4.53;;
12048;SDS011;6085;49.452;8.502;2023-04-22T03:55:25;6.03;;;4.60;;
12048;SDS011;6085;49.452;8.502;2023-04-22T03:59:27;5.35;;;4.75;;
12048;SDS011;6085;49.452;8.502;2023-04-22T04:03:29;5.88;;;4.70;;
12048;SDS011;6085;49.452;8.502;2023-04-22T04:07:32;5.43;;;4.93;;
12048;SDS011;6085;49.452;8.502;2023-04-22T04:11:34;5.35;;;4.82;;
12048;SDS011;6085;49.452;8.502;2023-04-22T04:15:36;5.07;;;4.60;;
12048;SDS011;6085;49.452;8.502;2023-04-22T04:19:38;5.15;;;4.50;;
12048;SDS011;6085;49.452;8.502;2023-04-22T04:23:42;5.18;;;4.57;;
12048;SDS011;6085;49.452;8.502;2023-04-22T04:27:44;5.20;;;4.70;;
12048;SDS011;6085;49.452;8.502;2023-04-22T04:31:46;5.20;;;4.70;;
12048;SDS011;6085;49.452;8.502;2023-04-22T04:35:48;5.32;;;4.80;;
12048;SDS011;6085;49.452;8.502;2023-04-22T04:39:52;5.28;;;4.78;;
12048;SDS011;6085;49.452;8.502;2023-04-22T04:43:53;5.63;;;5.05;;
12048;SDS011;6085;49.452;8.502;2023-04-22T04:47:55;6.60;;;5.30;;
12048;SDS011;6085;49.452;8.502;2023-04-22T04:51:59;5.75;;;4.63;;
12048;SDS011;6085;49.452;8.502;2023-04-22T04:56:02;5.60;;;4.97;;
12048;SDS011;6085;49.452;8.502;2023-04-22T05:00:05;6.60;;;5.40;;
12048;SDS011;6085;49.452;8.502;2023-04-22T05:04:09;6.03;;;5.43;;
12048;SDS011;6085;49.452;8.502;2023-04-22T05:08:11;6.95;;;6.05;;
12048;SDS011;6085;49.452;8.502;2023-04-22T05:12:14;6.55;;;5.50;;
12048;SDS011;6085;49.452;8.502;2023-04-22T05:16:16;6.55;;;5.88;;
12048;SDS011;6085;49.452;8.502;2023-04-22T05:20:18;6.35;;;5.75;;
12048;SDS011;6085;49.452;8.502;2023-04-22T05:24:20;6.10;;;5.50;;
12048;SDS011;6085;49.452;8.502;2023-04-22T05:28:23;5.88;;;4.95;;
12048;SDS011;6085;49.452;8.502;2023-04-22T05:32:28;5.07;;;4.57;;
12048;SDS011;6085;49.452;8.502;2023-04-22T05:36:30;6.00;;;5.00;;
12048;SDS011;6085;49.452;8.502;2023-04-22T05:40:33;4.40;;;4.00;;
12048;SDS011;6085;49.452;8.502;2023-04-22T05:44:36;4.03;;;3.72;;
12048;SDS011;6085;49.452;8.502;2023-04-22T05:48:38;3.85;;;3.55;;
12048;SDS011;6085;49.452;8.502;2023-04-22T05:52:40;4.18;;;3.50;;
12048;SDS011;6085;49.452;8.502;2023-04-22T05:56:42;3.22;;;3.03;;
12048;SDS011;6085;49.452;8.502;2023-04-22T06:00:45;3.58;;;3.28;;
12048;SDS011;6085;49.452;8.502;2023-04-22T06:04:47;3.28;;;3.08;;
12048;SDS011;6085;49.452;8.502;2023-04-22T06:08:49;3.40;;;3.20;;
12048;SDS011;6085;49.452;8.502;2023-04-22T06:12:51;3.42;;;3.10;;
12048;SDS011;6085;49.452;8.502;2023-04-22T06:16:54;3.20;;;3.00;;
12048;SDS011;6085;49.452;8.502;2023-04-22T06:20:56;2.83;;;2.63;;
12048;SDS011;6085;49.452;8.502;2023-04-22T06:24:58;2.92;;;2.72;;
12048;SDS011;6085;49.452;8.502;2023-04-22T06:29:00;2.72;;;2.53;;
12048;SDS011;6085;49.452;8.502;2023-04-22T06:33:05;2.80;;;2.60;;
12048;SDS011;6085;49.452;8.502;2023-04-22T06:37:07;3.28;;;2.88;;
12048;SDS011;6085;49.452;8.502;2023-04-22T06:41:09;3.10;;;2.88;;
12048;SDS011;6085;49.452;8.502;2023-04-22T06:45:11;3.30;;;3.10;;
12048;SDS011;6085;49.452;8.502;2023-04-22T06:49:14;3.33;;;3.03;;
12048;SDS011;6085;49.452;8.502;2023-04-22T06:53:16;3.45;;;3.15;;
12048;SDS011;6085;49.452;8.502;2023-04-22T06:57:18;3.30;;;3.00;;
12048;SDS011;6085;49.452;8.502;2023-04-22T07:01:20;3.30;;;3.00;;
12048;SDS011;6085;49.452;8.502;2023-04-22T07:05:23;2.75;;;2.55;;
12048;SDS011;6085;49.452;8.502;2023-04-22T07:09:25;3.42;;;2.75;;
12048;SDS011;6085;49.452;8.502;2023-04-22T07:13:28;3.67;;;2.90;;
12048;SDS011;6085;49.452;8.502;2023-04-22T07:17:33;4.03;;;3.05;;
12048;SDS011;6085;49.452;8.502;2023-04-22T07:21:36;4.57;;;3.10;;
12048;SDS011;6085;49.452;8.502;2023-04-22T07:25:38;3.00;;;2.80;;
12048;SDS011;6085;49.452;8.502;2023-04-22T07:29:40;3.50;;;3.20;;
12048;SDS011;6085;49.452;8.502;2023-04-22T07:33:42;3.10;;;2.90;;
12048;SDS011;6085;49.452;8.502;2023-04-22T07:37:45;3.20;;;2.90;;
12048;SDS011;6085;49.452;8.502;2023-04-22T07:41:47;3.33;;;3.10;;
12048;SDS011;6085;49.452;8.502;2023-04-22T07:45:49;3.10;;;2.90;;
12048;SDS011;6085;49.452;8.502;2023-04-22T07:49:52;2.85;;;2.65;;
12048;SDS011;6085;49.452;8.502;2023-04-22T07:53:55;2.97;;;2.67;;
12048;SDS011;6085;49.452;8.502;2023-04-22T07:57:57;2.75;;;2.55;;
12048;SDS011;6085;49.452;8.502;2023-04-22T08:01:59;3.70;;;2.65;;
12048;SDS011;6085;49.452;8.502;2023-04-22T08:06:02;2.80;;;2.45;;
12048;SDS011;6085;49.452;8.502;2023-04-22T08:10:07;3.10;;;2.80;;
12048;SDS011;6085;49.452;8.502;2023-04-22T08:14:10;2.80;;;2.45;;
12048;SDS011;6085;49.452;8.502;2023-04-22T08:18:11;2.88;;;2.60;;
12048;SDS011;6085;49.452;8.502;2023-04-22T08:22:14;2.90;;;2.70;;
12048;SDS011;6085;49.452;8.502;2023-04-22T08:26:18;3.47;;;2.75;;
12048;SDS011;6085;49.452;8.502;2023-04-22T08:30:20;3.35;;;3.05;;
12048;SDS011;6085;49.452;8.502;2023-04-22T08:34:22;2.90;;;2.70;;
12048;SDS011;6085;49.452;8.502;2023-04-22T08:38:26;3.00;;;2.80;;
12048;SDS011;6085;49.452;8.502;2023-04-22T08:42:30;2.75;;;2.53;;
12048;SDS011;6085;49.452;8.502;2023-04-22T08:46:32;2.75;;;2.38;;
12048;SDS011;6085;49.452;8.502;2023-04-22T08:50:35;3.25;;;2.95;;
12048;SDS011;6085;49.452;8.502;2023-04-22T08:54:39;2.80;;;2.60;;
12048;SDS011;6085;49.452;8.502;2023-04-22T08:58:43;4.10;;;2.97;;
12048;SDS011;6085;49.452;8.502;2023-04-22T09:02:45;3.00;;;2.80;;
12048;SDS011;6085;49.452;8.502;2023-04-22T09:06:49;2.22;;;2.13;;
12048;SDS011;6085;49.452;8.502;2023-04-22T09:10:51;3.20;;;2.28;;
12048;SDS011;6085;49.452;8.502;2023-04-22T09:14:55;2.60;;;2.40;;
12048;SDS011;6085;49.452;8.502;2023-04-22T09:18:57;3.25;;;2.78;;
12048;SDS011;6085;49.452;8.502;2023-04-22T09:23:01;2.60;;;2.40;;
12048;SDS011;6085;49.452;8.502;2023-04-22T09:27:04;2.50;;;2.30;;
12048;SDS011;6085;49.452;8.502;2023-04-22T09:31:12;2.30;;;2.10;;
12048;SDS011;6085;49.452;8.502;2023-04-22T09:35:14;2.63;;;2.40;;
12048;SDS011;6085;49.452;8.502;2023-04-22T09:39:17;3.28;;;3.00;;
12048;SDS011;6085;49.452;8.502;2023-04-22T09:43:19;2.60;;;2.40;;
12048;SDS011;6085;49.452;8.502;2023-04-22T09:47:22;2.67;;;2.47;;
12048;SDS011;6085;49.452;8.502;2023-04-22T09:51:24;2.47;;;2.22;;
12048;SDS011;6085;49.452;8.502;2023-04-22T09:55:28;2.53;;;2.33;;
12048;SDS011;6085;49.452;8.502;2023-04-22T09:59:31;3.50;;;2.78;;
12048;SDS011;6085;49.452;8.502;2023-04-22T10:03:34;2.83;;;2.40;;
12048;SDS011;6085;49.452;8.502;2023-04-22T10:07:36;2.65;;;2.30;;
12048;SDS011;6085;49.452;8.502;2023-04-22T10:11:38;2.55;;;2.33;;
12048;SDS011;6085;49.452;8.502;2023-04-22T10:15:41;2.40;;;2.20;;
12048;SDS011;6085;49.452;8.502;2023-04-22T10:19:46;2.42;;;2.00;;
12048;SDS011;6085;49.452;8.502;2023-04-22T10:23:49;2.08;;;1.83;;
12048;SDS011;6085;49.452;8.502;2023-04-22T10:27:51;2.20;;;2.00;;
12048;SDS011;6085;49.452;8.502;2023-04-22T10:31:55;2.00;;;1.90;;
12048;SDS011;6085;49.452;8.502;2023-04-22T10:36:06;2.95;;;1.90;;
12048;SDS011;6085;49.452;8.502;2023-04-22T10:40:11;2.00;;;1.90;;
12048;SDS011;6085;49.452;8.502;2023-04-22T10:44:16;1.80;;;1.70;;
12048;SDS011;6085;49.452;8.502;2023-04-22T10:48:31;1.90;;;1.80;;
12048;SDS011;6085;49.452;8.502;2023-04-22T10:52:53;2.67;;;1.80;;
12048;SDS011;6085;49.452;8.502;2023-04-22T10:56:59;3.25;;;1.77;;
12048;SDS011;6085;49.452;8.502;2023-04-22T11:01:02;3.28;;;2.28;;
12048;SDS011;6085;49.452;8.502;2023-04-22T11:05:19;2.00;;;1.80;;
12048;SDS011;6085;49.452;8.502;2023-04-22T11:09:24;1.98;;;1.73;;
12048;SDS011;6085;49.452;8.502;2023-04-22T11:13:26;1.90;;;1.80;;
12048;SDS011;6085;49.452;8.502;2023-04-22T11:17:30;2.28;;;1.95;;
12048;SDS011;6085;49.452;8.502;2023-04-22T11:21:32;2.03;;;1.83;;
12048;SDS011;6085;49.452;8.502;2023-04-22T11:25:35;1.73;;;1.52;;
12048;SDS011;6085;49.452;8.502;2023-04-22T11:29:37;2.30;;;1.50;;
12048;SDS011;6085;49.452;8.502;2023-04-22T11:33:39;2.42;;;1.90;;
12048;SDS011;6085;49.452;8.502;2023-04-22T11:37:43;2.45;;;1.88;;
12048;SDS011;6085;49.452;8.502;2023-04-22T11:41:47;1.70;;;1.60;;
12048;SDS011;6085;49.452;8.502;2023-04-22T11:45:49;2.08;;;1.85;;
12048;SDS011;6085;49.452;8.502;2023-04-22T11:49:54;2.15;;;1.45;;
12048;SDS011;6085;49.452;8.502;2023-04-22T11:53:58;3.78;;;1.52;;
12048;SDS011;6085;49.452;8.502;2023-04-22T11:58:05;1.88;;;1.67;;
12048;SDS011;6085;49.452;8.502;2023-04-22T12:02:08;2.72;;;1.70;;
12048;SDS011;6085;49.452;8.502;2023-04-22T12:06:10;1.58;;;1.48;;
12048;SDS011;6085;49.452;8.502;2023-04-22T12:10:12;1.70;;;1.40;;
12048;SDS011;6085;49.452;8.502;2023-04-22T12:14:15;2.80;;;1.60;;
12048;SDS011;6085;49.452;8.502;2023-04-22T12:18:22;1.25;;;1.25;;
12048;SDS011;6085;49.452;8.502;2023-04-22T12:22:28;1.70;;;1.50;;
12048;SDS011;6085;49.452;8.502;2023-04-22T12:26:32;2.13;;;1.70;;
12048;SDS011;6085;49.452;8.502;2023-04-22T12:30:36;1.67;;;1.58;;
12048;SDS011;6085;49.452;8.502;2023-04-22T12:34:38;2.53;;;1.98;;
12048;SDS011;6085;49.452;8.502;2023-04-22T12:38:40;1.80;;;1.70;;
12048;SDS011;6085;49.452;8.502;2023-04-22T12:42:42;1.88;;;1.50;;
12048;SDS011;6085;49.452;8.502;2023-04-22T12:46:45;1.65;;;1.55;;
12048;SDS011;6085;49.452;8.502;2023-04-22T12:50:47;1.80;;;1.70;;
12048;SDS011;6085;49.452;8.502;2023-04-22T12:54:49;1.70;;;1.60;;
12048;SDS011;6085;49.452;8.502;2023-04-22T12:58:51;2.03;;;1.80;;
12048;SDS011;6085;49.452;8.502;2023-04-22T13:02:55;2.10;;;1.92;;
12048;SDS011;6085;49.452;8.502;2023-04-22T13:06:57;2.42;;;1.92;;
12048;SDS011;6085;49.452;8.502;2023-04-22T13:10:58;2.05;;;1.85;;
12048;SDS011;6085;49.452;8.502;2023-04-22T13:15:00;2.10;;;1.90;;
12048;SDS011;6085;49.452;8.502;2023-04-22T13:19:04;3.28;;;1.90;;
12048;SDS011;6085;49.452;8.502;2023-04-22T13:23:06;2.05;;;1.60;;
12048;SDS011;6085;49.452;8.502;2023-04-22T13:27:08;1.80;;;1.70;;
12048;SDS011;6085;49.452;8.502;2023-04-22T13:31:10;1.98;;;1.77;;
12048;SDS011;6085;49.452;8.502;2023-04-22T13:35:14;2.97;;;1.95;;
12048;SDS011;6085;49.452;8.502;2023-04-22T13:39:17;2.38;;;1.58;;
12048;SDS011;6085;49.452;8.502;2023-04-22T13:43:19;2.22;;;1.50;;
12048;SDS011;6085;49.452;8.502;2023-04-22T13:47:21;1.70;;;1.60;;
12048;SDS011;6085;49.452;8.502;2023-04-22T13:51:24;2.20;;;2.00;;
12048;SDS011;6085;49.452;8.502;2023-04-22T13:55:26;1.92;;;1.50;;
12048;SDS011;6085;49.452;8.502;2023-04-22T13:59:29;1.65;;;1.50;;
12048;SDS011;6085;49.452;8.502;2023-04-22T14:03:31;1.83;;;1.52;;
12048;SDS011;6085;49.452;8.502;2023-04-22T14:07:34;3.72;;;3.42;;
12048;SDS011;6085;49.452;8.502;2023-04-22T14:11:37;2.75;;;2.55;;
12048;SDS011;6085;49.452;8.502;2023-04-22T14:15:39;2.20;;;1.60;;
12048;SDS011;6085;49.452;8.502;2023-04-22T14:19:40;2.47;;;1.67;;
12048;SDS011;6085;49.452;8.502;2023-04-22T14:23:45;1.50;;;1.40;;
12048;SDS011;6085;49.452;8.502;2023-04-22T14:27:47;1.67;;;1.40;;
12048;SDS011;6085;49.452;8.502;2023-04-22T14:31:49;1.30;;;1.20;;
12048;SDS011;6085;49.452;8.502;2023-04-22T14:35:51;2.03;;;1.40;;
12048;SDS011;6085;49.452;8.502;2023-04-22T14:39:54;1.80;;;1.40;;
12048;SDS011;6085;49.452;8.502;2023-04-22T14:43:56;1.80;;;1.40;;
12048;SDS011;6085;49.452;8.502;2023-04-22T14:47:58;2.35;;;1.60;;
12048;SDS011;6085;49.452;8.502;2023-04-22T14:52:00;1.63;;;1.52;;
12048;SDS011;6085;49.452;8.502;2023-04-22T14:56:04;2.63;;;2.42;;
12048;SDS011;6085;49.452;8.502;2023-04-22T15:00:06;1.95;;;1.70;;
12048;SDS011;6085;49.452;8.502;2023-04-22T15:04:09;1.60;;;1.50;;
12048;SDS011;6085;49.452;8.502;2023-04-22T15:08:12;2.53;;;1.67;;
12048;SDS011;6085;49.452;8.502;2023-04-22T15:12:15;3.17;;;1.80;;
12048;SDS011;6085;49.452;8.502;2023-04-22T15:16:18;2.33;;;1.80;;
12048;SDS011;6085;49.452;8.502;2023-04-22T15:20:19;2.45;;;1.63;;
12048;SDS011;6085;49.452;8.502;2023-04-22T15:24:22;2.05;;;1.70;;
12048;SDS011;6085;49.452;8.502;2023-04-22T15:28:26;2.55;;;1.55;;
12048;SDS011;6085;49.452;8.502;2023-04-22T15:32:28;2.38;;;1.48;;
12048;SDS011;6085;49.452;8.502;2023-04-22T15:36:30;2.13;;;1.40;;
12048;SDS011;6085;49.452;8.502;2023-04-22T15:40:32;1.20;;;1.20;;
12048;SDS011;6085;49.452;8.502;2023-04-22T15:44:35;1.20;;;1.10;;
12048;SDS011;6085;49.452;8.502;2023-04-22T15:48:38;1.60;;;1.27;;
12048;SDS011;6085;49.452;8.502;2023-04-22T15:52:43;1.73;;;1.42;;
12048;SDS011;6085;49.452;8.502;2023-04-22T15:56:45;2.92;;;1.30;;
12048;SDS011;6085;49.452;8.502;2023-04-22T16:00:49;1.77;;;1.40;;
12048;SDS011;6085;49.452;8.502;2023-04-22T16:04:50;1.70;;;1.60;;
12048;SDS011;6085;49.452;8.502;2023-04-22T16:08:52;2.05;;;1.40;;
12048;SDS011;6085;49.452;8.502;2023-04-22T16:12:54;1.42;;;1.33;;
12048;SDS011;6085;49.452;8.502;2023-04-22T16:16:58;1.40;;;1.30;;
12048;SDS011;6085;49.452;8.502;2023-04-22T16:21:02;3.38;;;1.40;;
12048;SDS011;6085;49.452;8.502;2023-04-22T16:25:05;2.60;;;1.40;;
12048;SDS011;6085;49.452;8.502;2023-04-22T16:29:07;1.55;;;1.45;;
12048;SDS011;6085;49.452;8.502;2023-04-22T16:33:11;2.05;;;1.50;;
12048;SDS011;6085;49.452;8.502;2023-04-22T16:37:14;2.47;;;1.80;;
12048;SDS011;6085;49.452;8.502;2023-04-22T16:41:16;1.55;;;1.45;;
12048;SDS011;6085;49.452;8.502;2023-04-22T16:45:18;2.40;;;2.05;;
12048;SDS011;6085;49.452;8.502;2023-04-22T16:49:22;2.20;;;1.92;;
12048;SDS011;6085;49.452;8.502;2023-04-22T16:53:23;2.83;;;2.20;;
12048;SDS011;6085;49.452;8.502;2023-04-22T16:57:25;1.75;;;1.50;;
12048;SDS011;6085;49.452;8.502;2023-04-22T17:01:27;2.60;;;1.50;;
12048;SDS011;6085;49.452;8.502;2023-04-22T17:05:31;2.10;;;1.60;;
12048;SDS011;6085;49.452;8.502;2023-04-22T17:09:33;3.30;;;2.10;;
12048;SDS011;6085;49.452;8.502;2023-04-22T17:13:35;2.70;;;1.80;;
12048;SDS011;6085;49.452;8.502;2023-04-22T17:17:37;2.08;;;1.90;;
12048;SDS011;6085;49.452;8.502;2023-04-22T17:21:40;3.22;;;1.90;;
12048;SDS011;6085;49.452;8.502;2023-04-22T17:25:42;1.73;;;1.63;;
12048;SDS011;6085;49.452;8.502;2023-04-22T17:29:46;2.03;;;1.55;;
12048;SDS011;6085;49.452;8.502;2023-04-22T17:33:47;2.10;;;1.52;;
12048;SDS011;6085;49.452;8.502;2023-04-22T17:37:51;1.60;;;1.50;;
12048;SDS011;6085;49.452;8.502;2023-04-22T17:41:53;2.45;;;1.70;;
12048;SDS011;6085;49.452;8.502;2023-04-22T17:45:57;2.85;;;1.70;;
12048;SDS011;6085;49.452;8.502;2023-04-22T17:49:59;2.05;;;1.60;;
12048;SDS011;6085;49.452;8.502;2023-04-22T17:54:02;1.35;;;1.25;;
12048;SDS011;6085;49.452;8.502;2023-04-22T17:58:04;3.20;;;2.05;;
12048;SDS011;6085;49.452;8.502;2023-04-22T18:02:06;2.83;;;1.70;;
12048;SDS011;6085;49.452;8.502;2023-04-22T18:06:10;2.78;;;1.70;;
12048;SDS011;6085;49.452;8.502;2023-04-22T18:10:13;3.38;;;1.77;;
12048;SDS011;6085;49.452;8.502;2023-04-22T18:14:15;1.90;;;1.50;;
12048;SDS011;6085;49.452;8.502;2023-04-22T18:18:19;2.55;;;1.80;;
12048;SDS011;6085;49.452;8.502;2023-04-22T18:22:21;2.22;;;1.92;;
12048;SDS011;6085;49.452;8.502;2023-04-22T18:26:25;2.13;;;1.70;;
12048;SDS011;6085;49.452;8.502;2023-04-22T18:30:27;2.45;;;1.70;;
12048;SDS011;6085;49.452;8.502;2023-04-22T18:34:29;2.17;;;1.80;;
12048;SDS011;6085;49.452;8.502;2023-04-22T18:38:31;3.15;;;1.55;;
12048;SDS011;6085;49.452;8.502;2023-04-22T18:42:35;4.13;;;2.00;;
12048;SDS011;6085;49.452;8.502;2023-04-22T18:46:37;2.47;;;1.52;;
12048;SDS011;6085;49.452;8.502;2023-04-22T18:50:39;2.67;;;1.70;;
12048;SDS011;6085;49.452;8.502;2023-04-22T18:54:41;2.50;;;1.83;;
12048;SDS011;6085;49.452;8.502;2023-04-22T18:58:44;1.70;;;1.60;;
12048;SDS011;6085;49.452;8.502;2023-04-22T19:02:46;1.95;;;1.77;;
12048;SDS011;6085;49.452;8.502;2023-04-22T19:06:48;2.30;;;1.80;;
12048;SDS011;6085;49.452;8.502;2023-04-22T19:10:50;2.40;;;1.80;;
12048;SDS011;6085;49.452;8.502;2023-04-22T19:14:54;2.42;;;1.85;;
12048;SDS011;6085;49.452;8.502;2023-04-22T19:18:58;2.30;;;1.80;;
12048;SDS011;6085;49.452;8.502;2023-04-22T19:23:00;3.17;;;2.00;;
12048;SDS011;6085;49.452;8.502;2023-04-22T19:27:02;2.05;;;1.83;;
12048;SDS011;6085;49.452;8.502;2023-04-22T19:31:12;2.17;;;1.95;;
12048;SDS011;6085;49.452;8.502;2023-04-22T19:35:14;1.98;;;1.85;;
12048;SDS011;6085;49.452;8.502;2023-04-22T19:39:16;2.85;;;2.10;;
12048;SDS011;6085;49.452;8.502;2023-04-22T19:43:18;2.50;;;2.00;;
12048;SDS011;6085;49.452;8.502;2023-04-22T19:47:23;4.63;;;2.17;;
12048;SDS011;6085;49.452;8.502;2023-04-22T19:51:25;2.97;;;2.10;;
12048;SDS011;6085;49.452;8.502;2023-04-22T19:55:27;2.40;;;2.20;;
12048;SDS011;6085;49.452;8.502;2023-04-22T19:59:29;2.20;;;2.00;;
12048;SDS011;6085;49.452;8.502;2023-04-22T20:03:33;3.25;;;2.40;;
12048;SDS011;6085;49.452;8.502;2023-04-22T20:07:36;2.72;;;2.53;;
12048;SDS011;6085;49.452;8.502;2023-04-22T20:11:40;2.60;;;2.40;;
12048;SDS011;6085;49.452;8.502;2023-04-22T20:15:42;3.38;;;2.50;;
12048;SDS011;6085;49.452;8.502;2023-04-22T20:19:46;3.28;;;2.28;;
12048;SDS011;6085;49.452;8.502;2023-04-22T20:23:48;2.85;;;2.58;;
12048;SDS011;6085;49.452;8.502;2023-04-22T20:27:52;3.28;;;2.70;;
12048;SDS011;6085;49.452;8.502;2023-04-22T20:31:55;4.78;;;2.85;;
12048;SDS011;6085;49.452;8.502;2023-04-22T20:35:59;4.13;;;2.42;;
12048;SDS011;6085;49.452;8.502;2023-04-22T20:40:01;3.28;;;2.28;;
12048;SDS011;6085;49.452;8.502;2023-04-22T20:44:07;4.60;;;2.40;;
12048;SDS011;6085;49.452;8.502;2023-04-22T20:48:09;3.75;;;2.45;;
12048;SDS011;6085;49.452;8.502;2023-04-22T20:52:13;2.90;;;2.50;;
12048;SDS011;6085;49.452;8.502;2023-04-22T20:56:15;3.03;;;2.83;;
12048;SDS011;6085;49.452;8.502;2023-04-22T21:00:17;4.15;;;2.70;;
12048;SDS011;6085;49.452;8.502;2023-04-22T21:04:20;3.65;;;2.60;;
12048;SDS011;6085;49.452;8.502;2023-04-22T21:08:24;2.75;;;2.55;;
12048;SDS011;6085;49.452;8.502;2023-04-22T21:12:27;3.08;;;2.75;;
12048;SDS011;6085;49.452;8.502;2023-04-22T21:16:29;2.78;;;2.53;;
12048;SDS011;6085;49.452;8.502;2023-04-22T21:20:31;4.85;;;2.50;;
12048;SDS011;6085;49.452;8.502;2023-04-22T21:24:38;3.42;;;2.92;;
12048;SDS011;6085;49.452;8.502;2023-04-22T21:28:41;2.80;;;2.60;;
12048;SDS011;6085;49.452;8.502;2023-04-22T21:32:44;2.75;;;2.55;;
12048;SDS011;6085;49.452;8.502;2023-04-22T21:36:46;2.75;;;2.47;;
12048;SDS011;6085;49.452;8.502;2023-04-22T21:40:49;2.95;;;2.65;;
12048;SDS011;6085;49.452;8.502;2023-04-22T21:44:51;3.90;;;2.85;;
12048;SDS011;6085;49.452;8.502;2023-04-22T21:48:53;2.60;;;2.25;;
12048;SDS011;6085;49.452;8.502;2023-04-22T21:52:56;4.18;;;2.22;;
12048;SDS011;6085;49.452;8.502;2023-04-22T21:56:59;2.95;;;2.42;;
12048;SDS011;6085;49.452;8.502;2023-04-22T22:01:01;2.28;;;1.92;;
12048;SDS011;6085;49.452;8.502;2023-04-22T22:05:03;2.22;;;2.10;;
12048;SDS011;6085;49.452;8.502;2023-04-22T22:09:06;2.25;;;2.15;;
12048;SDS011;6085;49.452;8.502;2023-04-22T22:13:09;3.00;;;2.53;;
12048;SDS011;6085;49.452;8.502;2023-04-22T22:17:11;2.47;;;2.28;;
12048;SDS011;6085;49.452;8.502;2023-04-22T22:21:13;2.38;;;2.20;;
12048;SDS011;6085;49.452;8.502;2023-04-22T22:25:15;2.17;;;2.03;;
12048;SDS011;6085;49.452;8.502;2023-04-22T22:29:19;3.55;;;2.30;;
12048;SDS011;6085;49.452;8.502;2023-04-22T22:33:21;2.67;;;2.42;;
12048;SDS011;6085;49.452;8.502;2023-04-22T22:37:23;2.85;;;2.30;;
12048;SDS011;6085;49.452;8.502;2023-04-22T22:41:25;2.47;;;2.28;;
12048;SDS011;6085;49.452;8.502;2023-04-22T22:45:29;2.63;;;2.22;;
12048;SDS011;6085;49.452;8.502;2023-04-22T22:49:31;2.30;;;2.10;;
12048;SDS011;6085;49.452;8.502;2023-04-22T22:53:33;3.75;;;2.90;;
12048;SDS011;6085;49.452;8.502;2023-04-22T22:57:35;3.25;;;2.42;;
12048;SDS011;6085;49.452;8.502;2023-04-22T23:01:39;3.42;;;2.78;;
12048;SDS011;6085;49.452;8.502;2023-04-22T23:05:41;2.95;;;2.72;;
12048;SDS011;6085;49.452;8.502;2023-04-22T23:09:43;4.15;;;2.80;;
12048;SDS011;6085;49.452;8.502;2023-04-22T23:13:45;4.25;;;2.83;;
12048;SDS011;6085;49.452;8.502;2023-04-22T23:17:49;4.13;;;3.03;;
12048;SDS011;6085;49.452;8.502;2023-04-22T23:21:51;3.67;;;3.38;;
12048;SDS011;6085;49.452;8.502;2023-04-22T23:25:56;3.95;;;2.80;;
12048;SDS011;6085;49.452;8.502;2023-04-22T23:29:59;3.08;;;2.58;;
12048;SDS011;6085;49.452;8.502;2023-04-22T23:34:04;2.78;;;2.58;;
12048;SDS011;6085;49.452;8.502;2023-04-22T23:38:06;3.10;;;2.50;;
12048;SDS011;6085;49.452;8.502;2023-04-22T23:42:11;4.60;;;2.83;;
12048;SDS011;6085;49.452;8.502;2023-04-22T23:46:13;2.75;;;2.55;;
12048;SDS011;6085;49.452;8.502;2023-04-22T23:50:16;3.03;;;2.70;;
12048;SDS011;6085;49.452;8.502;2023-04-22T23:54:18;2.80;;;2.60;;
12048;SDS011;6085;49.452;8.502;2023-04-22T23:58:20;3.80;;;3.20;;
